Phoenix, AZ (85050)

7:53 PM MST on September 01, 2014 (GMT -0700)
Desert Ridge | Change Station
CLOSE
Current Station
Personal Weather Station
Location: Phoenix, AZ
Elevation: 1627 ft
Nearby Weather Stations

Elev 1627 ft 33.69 °N, 111.98 °W | Updated 5 minutes ago

Clear
Clear
92.0 °F
Feels Like 88 °F
N
0.9
Wind Variable Wind from North

Today
High -- | Low -- °F
--% Chance of Precip.
Yesterday
High -- | Low -- °F
Precip. -- in
6:01 AM 6:53 PM
Waxing Crescent, 46% visible
Pressure 29.66 in
Visibility 10.0 miles
Clouds Clear
Heat Index 88 °F
Dew Point 44 °F
Humidity 19%
Rainfall -999.00 in
Snow Depth Not available.
UV 0 out of 12
Pollen 5.90 out of 12
Ozone Good
PM2.5 Good
Flu Activity Not available.
METAR KDVT 020153Z 31004KT 10SM CLR 38/03 A2975 RMK AO2 SLP044 T03780028

More Conditions Fewer Conditions

Pressure 29.66 in
Visibility 10.0 miles
Clouds Clear
Heat Index 88 °F
Dew Point 44 °F
Humidity 19%
Rainfall -999.00 in
Snow Depth Not available.
UV 0 out of 12
Pollen 5.90 out of 12
Ozone Good
PM2.5 Good
Flu Activity Not available.
METAR KDVT 020153Z 31004KT 10SM CLR 38/03 A2975 RMK AO2 SLP044 T03780028

More Conditions Fewer Conditions

10-Day Weather Forecast

Almanac

Astronomy

Sep. 01, 2014 Rise Set
Actual Time 6:01 AM MST 6:53 PM MST
Civil Twilight 5:36 AM MST 7:18 PM MST
Nautical Twilight 5:06 AM MST 7:48 PM MST
Astronomical Twilight 4:35 AM MST 8:19 PM MST
Moon 12:32 PM MST (9/1) 11:17 PM MST (9/1)
Length of Visible Light 13h 42m
Length of Day
12h 51m
Tomorrow will be 2m 1s shorter.
Waxing Crescent, 46% of the Moon is Illuminated
Today
Waxing Crescent
Sep 2
First Quarter
Sep 8
Full
Sep 15
Last Quarter
Sep 24
New

Today's Extremes

State Highs State Lows

Community

WunderPhotos

Upload Photos

1,749,513 photos uploaded!

Nearby

Air Quality

  Air Quality AQ Index Pollutant
Yesterday Good
OZONE
Yesterday Good
PM10
Current Good
OZONE
Current Good
PM2.5
Monday Moderate
OZONE
Monday Good
PM10
Monday Good
CO
Tuesday Moderate
OZONE
Tuesday Good
PM10
Tuesday Good
CO
Wednesday Moderate
OZONE
Wednesday Good
PM10
Wednesday Good
CO

Snow Depth

Station Depth Elevation
Workman Creek 0 in 6900 ft
Snowslide Canyon 0 in 9730 ft
Maverick Fork 0 in 9200 ft
Beaver Head 39 in 7990 ft

Earthquake Activity

City Distance Mag. Time & Date
No recent earthquake activity has been reported nearby.
Minimum magnitude displayed is 2.5.

Coastal Water Temperatures

Place Temperature
No Stations Reporting

Nearby Weather Stations